sensor_id;sensor_type;location;lat;lon;timestamp;temperature;humidity
41965;DHT22;50120;53.250;8.702;2022-12-18T00:01:48;-5.80;99.90
41965;DHT22;50120;53.250;8.702;2022-12-18T00:04:25;-5.80;99.90
41965;DHT22;50120;53.250;8.702;2022-12-18T00:06:51;-5.80;99.90
41965;DHT22;50120;53.250;8.702;2022-12-18T00:09:17;-5.80;99.90
41965;DHT22;50120;53.250;8.702;2022-12-18T00:11:43;-5.80;99.90
41965;DHT22;50120;53.250;8.702;2022-12-18T00:14:11;-5.80;99.90
41965;DHT22;50120;53.250;8.702;2022-12-18T00:16:37;-5.80;99.90
41965;DHT22;50120;53.250;8.702;2022-12-18T00:19:04;-5.80;99.90
41965;DHT22;50120;53.250;8.702;2022-12-18T00:21:31;-5.80;99.90
41965;DHT22;50120;53.250;8.702;2022-12-18T00:23:58;-5.80;99.90
41965;DHT22;50120;53.250;8.702;2022-12-18T00:26:26;-5.80;99.90
41965;DHT22;50120;53.250;8.702;2022-12-18T00:28:52;-5.70;99.90
41965;DHT22;50120;53.250;8.702;2022-12-18T00:31:23;-5.80;99.90
41965;DHT22;50120;53.250;8.702;2022-12-18T00:33:50;-5.80;99.90
41965;DHT22;50120;53.250;8.702;2022-12-18T00:36:20;-5.80;99.90
41965;DHT22;50120;53.250;8.702;2022-12-18T00:38:47;-5.80;99.90
41965;DHT22;50120;53.250;8.702;2022-12-18T00:41:15;-5.80;99.90
41965;DHT22;50120;53.250;8.702;2022-12-18T00:44:01;-5.80;99.90
41965;DHT22;50120;53.250;8.702;2022-12-18T00:46:27;-5.90;99.90
41965;DHT22;50120;53.250;8.702;2022-12-18T00:48:53;-5.90;99.90
41965;DHT22;50120;53.250;8.702;2022-12-18T00:51:22;-5.90;99.90
41965;DHT22;50120;53.250;8.702;2022-12-18T00:53:48;-5.90;99.90
41965;DHT22;50120;53.250;8.702;2022-12-18T00:56:14;-5.80;99.90
41965;DHT22;50120;53.250;8.702;2022-12-18T00:58:39;-5.80;99.90
41965;DHT22;50120;53.250;8.702;2022-12-18T01:01:05;-5.90;99.90
41965;DHT22;50120;53.250;8.702;2022-12-18T01:03:31;-5.90;99.90
41965;DHT22;50120;53.250;8.702;2022-12-18T01:05:57;-5.80;99.90
41965;DHT22;50120;53.250;8.702;2022-12-18T01:08:23;-5.90;99.90
41965;DHT22;50120;53.250;8.702;2022-12-18T01:10:48;-6.00;99.90
41965;DHT22;50120;53.250;8.702;2022-12-18T01:13:14;-6.00;99.90
41965;DHT22;50120;53.250;8.702;2022-12-18T01:15:40;-6.00;99.90
41965;DHT22;50120;53.250;8.702;2022-12-18T01:18:06;-5.90;99.90
41965;DHT22;50120;53.250;8.702;2022-12-18T01:20:32;-5.80;99.90
41965;DHT22;50120;53.250;8.702;2022-12-18T01:22:58;-6.00;99.90
41965;DHT22;50120;53.250;8.702;2022-12-18T01:25:24;-6.00;99.90
41965;DHT22;50120;53.250;8.702;2022-12-18T01:27:50;-6.10;99.90
41965;DHT22;50120;53.250;8.702;2022-12-18T01:30:16;-6.10;99.90
41965;DHT22;50120;53.250;8.702;2022-12-18T01:32:41;-6.10;99.90
41965;DHT22;50120;53.250;8.702;2022-12-18T01:35:07;-6.10;99.90
41965;DHT22;50120;53.250;8.702;2022-12-18T01:37:33;-6.10;99.90
41965;DHT22;50120;53.250;8.702;2022-12-18T01:39:59;-6.10;99.90
41965;DHT22;50120;53.250;8.702;2022-12-18T01:42:24;-6.10;99.90
41965;DHT22;50120;53.250;8.702;2022-12-18T01:47:39;-6.10;99.90
41965;DHT22;50120;53.250;8.702;2022-12-18T01:50:38;-6.10;99.90
41965;DHT22;50120;53.250;8.702;2022-12-18T01:53:07;-6.20;99.90
41965;DHT22;50120;53.250;8.702;2022-12-18T01:55:42;-6.20;99.90
41965;DHT22;50120;53.250;8.702;2022-12-18T01:58:08;-6.20;99.90
41965;DHT22;50120;53.250;8.702;2022-12-18T02:00:34;-6.20;99.90
41965;DHT22;50120;53.250;8.702;2022-12-18T02:03:00;-6.20;99.90
41965;DHT22;50120;53.250;8.702;2022-12-18T02:05:29;-6.20;99.90
41965;DHT22;50120;53.250;8.702;2022-12-18T02:08:18;-6.20;99.90
41965;DHT22;50120;53.250;8.702;2022-12-18T02:10:53;-6.20;99.90
41965;DHT22;50120;53.250;8.702;2022-12-18T02:16:02;-6.30;99.90
41965;DHT22;50120;53.250;8.702;2022-12-18T02:18:41;-6.30;99.90
41965;DHT22;50120;53.250;8.702;2022-12-18T02:26:51;-6.20;99.90
41965;DHT22;50120;53.250;8.702;2022-12-18T02:29:48;-6.50;99.90
41965;DHT22;50120;53.250;8.702;2022-12-18T02:32:20;-6.40;99.90
41965;DHT22;50120;53.250;8.702;2022-12-18T02:34:48;-6.50;99.90
41965;DHT22;50120;53.250;8.702;2022-12-18T02:37:18;-6.50;99.90
41965;DHT22;50120;53.250;8.702;2022-12-18T02:39:46;-6.50;99.90
41965;DHT22;50120;53.250;8.702;2022-12-18T02:42:17;-6.50;99.90
41965;DHT22;50120;53.250;8.702;2022-12-18T02:44:45;-6.50;99.90
41965;DHT22;50120;53.250;8.702;2022-12-18T02:47:16;-6.50;99.90
41965;DHT22;50120;53.250;8.702;2022-12-18T02:55:17;-6.40;99.90
41965;DHT22;50120;53.250;8.702;2022-12-18T03:00:23;-6.70;99.90
41965;DHT22;50120;53.250;8.702;2022-12-18T03:03:26;-6.70;99.90
41965;DHT22;50120;53.250;8.702;2022-12-18T03:06:04;-6.70;99.90
41965;DHT22;50120;53.250;8.702;2022-12-18T03:08:37;-6.80;99.90
41965;DHT22;50120;53.250;8.702;2022-12-18T03:11:11;-6.70;99.90
41965;DHT22;50120;53.250;8.702;2022-12-18T03:13:47;-6.80;99.90
41965;DHT22;50120;53.250;8.702;2022-12-18T03:16:20;-6.80;99.90
41965;DHT22;50120;53.250;8.702;2022-12-18T03:18:56;-6.80;99.90
41965;DHT22;50120;53.250;8.702;2022-12-18T03:21:28;-6.80;99.90
41965;DHT22;50120;53.250;8.702;2022-12-18T03:23:55;-6.80;99.90
41965;DHT22;50120;53.250;8.702;2022-12-18T03:26:24;-6.90;99.90
41965;DHT22;50120;53.250;8.702;2022-12-18T03:28:58;-6.90;99.90
41965;DHT22;50120;53.250;8.702;2022-12-18T03:31:26;-6.90;99.90
41965;DHT22;50120;53.250;8.702;2022-12-18T03:33:59;-6.90;99.90
41965;DHT22;50120;53.250;8.702;2022-12-18T03:36:29;-7.00;99.90
41965;DHT22;50120;53.250;8.702;2022-12-18T03:38:58;-7.00;99.90
41965;DHT22;50120;53.250;8.702;2022-12-18T03:41:46;-7.00;99.90
41965;DHT22;50120;53.250;8.702;2022-12-18T03:52:11;-7.00;99.90
41965;DHT22;50120;53.250;8.702;2022-12-18T03:54:39;-7.00;99.90
41965;DHT22;50120;53.250;8.702;2022-12-18T03:57:13;-7.00;99.90
41965;DHT22;50120;53.250;8.702;2022-12-18T03:59:41;-7.00;99.90
41965;DHT22;50120;53.250;8.702;2022-12-18T04:02:08;-6.90;99.90
41965;DHT22;50120;53.250;8.702;2022-12-18T04:04:37;-7.00;99.90
41965;DHT22;50120;53.250;8.702;2022-12-18T04:07:04;-6.90;99.90
41965;DHT22;50120;53.250;8.702;2022-12-18T04:09:32;-7.00;99.90
41965;DHT22;50120;53.250;8.702;2022-12-18T04:11:58;-7.00;99.90
41965;DHT22;50120;53.250;8.702;2022-12-18T04:14:23;-7.00;99.90
41965;DHT22;50120;53.250;8.702;2022-12-18T04:16:49;-7.10;99.90
41965;DHT22;50120;53.250;8.702;2022-12-18T04:19:15;-7.10;99.90
41965;DHT22;50120;53.250;8.702;2022-12-18T04:21:40;-7.10;99.90
41965;DHT22;50120;53.250;8.702;2022-12-18T04:24:06;-7.00;99.90
41965;DHT22;50120;53.250;8.702;2022-12-18T04:26:32;-7.00;99.90
41965;DHT22;50120;53.250;8.702;2022-12-18T04:28:58;-7.00;99.90
41965;DHT22;50120;53.250;8.702;2022-12-18T04:31:24;-6.80;99.90
41965;DHT22;50120;53.250;8.702;2022-12-18T04:33:49;-6.80;99.90
41965;DHT22;50120;53.250;8.702;2022-12-18T04:36:15;-6.70;99.90
41965;DHT22;50120;53.250;8.702;2022-12-18T04:38:41;-6.80;99.90
41965;DHT22;50120;53.250;8.702;2022-12-18T04:41:06;-6.80;99.90
41965;DHT22;50120;53.250;8.702;2022-12-18T04:43:32;-6.80;99.90
41965;DHT22;50120;53.250;8.702;2022-12-18T04:46:03;-6.70;99.90
41965;DHT22;50120;53.250;8.702;2022-12-18T04:48:29;-6.70;99.90
41965;DHT22;50120;53.250;8.702;2022-12-18T04:50:55;-6.80;99.90
41965;DHT22;50120;53.250;8.702;2022-12-18T04:53:20;-6.70;99.90
41965;DHT22;50120;53.250;8.702;2022-12-18T04:55:46;-6.70;99.90
41965;DHT22;50120;53.250;8.702;2022-12-18T04:58:12;-6.70;99.90
41965;DHT22;50120;53.250;8.702;2022-12-18T05:00:37;-6.50;99.90
41965;DHT22;50120;53.250;8.702;2022-12-18T05:03:03;-6.60;99.90
41965;DHT22;50120;53.250;8.702;2022-12-18T05:05:29;-6.60;99.90
41965;DHT22;50120;53.250;8.702;2022-12-18T05:07:54;-6.50;99.90
41965;DHT22;50120;53.250;8.702;2022-12-18T05:10:20;-6.50;99.90
41965;DHT22;50120;53.250;8.702;2022-12-18T05:12:46;-6.50;99.90
41965;DHT22;50120;53.250;8.702;2022-12-18T05:15:28;-6.50;99.90
41965;DHT22;50120;53.250;8.702;2022-12-18T05:17:54;-6.50;99.90
41965;DHT22;50120;53.250;8.702;2022-12-18T05:20:20;-6.40;99.90
41965;DHT22;50120;53.250;8.702;2022-12-18T05:22:45;-6.50;99.90
41965;DHT22;50120;53.250;8.702;2022-12-18T05:25:11;-6.60;99.90
41965;DHT22;50120;53.250;8.702;2022-12-18T05:27:37;-6.70;99.90
41965;DHT22;50120;53.250;8.702;2022-12-18T05:30:03;-6.60;99.90
41965;DHT22;50120;53.250;8.702;2022-12-18T05:32:29;-6.70;99.90
41965;DHT22;50120;53.250;8.702;2022-12-18T05:34:54;-6.70;99.90
41965;DHT22;50120;53.250;8.702;2022-12-18T05:37:22;-6.70;99.90
41965;DHT22;50120;53.250;8.702;2022-12-18T05:39:48;-6.70;99.90
41965;DHT22;50120;53.250;8.702;2022-12-18T05:42:14;-6.70;99.90
41965;DHT22;50120;53.250;8.702;2022-12-18T05:44:39;-6.80;99.90
41965;DHT22;50120;53.250;8.702;2022-12-18T05:47:05;-6.80;99.90
41965;DHT22;50120;53.250;8.702;2022-12-18T05:49:31;-6.80;99.90
41965;DHT22;50120;53.250;8.702;2022-12-18T05:51:57;-6.90;99.90
41965;DHT22;50120;53.250;8.702;2022-12-18T05:54:23;-6.70;99.90
41965;DHT22;50120;53.250;8.702;2022-12-18T05:56:48;-6.60;99.90
41965;DHT22;50120;53.250;8.702;2022-12-18T05:59:14;-7.00;99.90
41965;DHT22;50120;53.250;8.702;2022-12-18T06:01:40;-6.90;99.90
41965;DHT22;50120;53.250;8.702;2022-12-18T06:04:06;-7.10;99.90
41965;DHT22;50120;53.250;8.702;2022-12-18T06:06:31;-7.10;99.90
41965;DHT22;50120;53.250;8.702;2022-12-18T06:08:57;-7.20;99.90
41965;DHT22;50120;53.250;8.702;2022-12-18T06:11:25;-7.20;99.90
41965;DHT22;50120;53.250;8.702;2022-12-18T06:13:55;-7.20;99.90
41965;DHT22;50120;53.250;8.702;2022-12-18T06:16:21;-7.10;99.90
41965;DHT22;50120;53.250;8.702;2022-12-18T06:18:47;-7.30;99.90
41965;DHT22;50120;53.250;8.702;2022-12-18T06:21:13;-7.30;99.90
41965;DHT22;50120;53.250;8.702;2022-12-18T06:23:38;-7.30;99.90
41965;DHT22;50120;53.250;8.702;2022-12-18T06:26:09;-7.30;99.90
41965;DHT22;50120;53.250;8.702;2022-12-18T06:28:35;-7.30;99.90
41965;DHT22;50120;53.250;8.702;2022-12-18T06:31:03;-7.30;99.90
41965;DHT22;50120;53.250;8.702;2022-12-18T06:33:29;-7.10;99.90
41965;DHT22;50120;53.250;8.702;2022-12-18T06:36:00;-7.20;99.90
41965;DHT22;50120;53.250;8.702;2022-12-18T06:38:26;-7.30;99.90
41965;DHT22;50120;53.250;8.702;2022-12-18T06:40:51;-7.30;99.90
41965;DHT22;50120;53.250;8.702;2022-12-18T06:43:17;-7.30;99.90
41965;DHT22;50120;53.250;8.702;2022-12-18T06:45:43;-7.40;99.90
41965;DHT22;50120;53.250;8.702;2022-12-18T06:48:08;-7.40;99.90
41965;DHT22;50120;53.250;8.702;2022-12-18T06:50:34;-7.40;99.90
41965;DHT22;50120;53.250;8.702;2022-12-18T06:53:00;-7.50;99.90
41965;DHT22;50120;53.250;8.702;2022-12-18T06:55:26;-7.50;99.90
41965;DHT22;50120;53.250;8.702;2022-12-18T06:57:51;-7.30;99.90
41965;DHT22;50120;53.250;8.702;2022-12-18T07:00:18;-7.50;99.90
41965;DHT22;50120;53.250;8.702;2022-12-18T07:02:43;-7.50;99.90
41965;DHT22;50120;53.250;8.702;2022-12-18T07:05:09;-7.60;99.90
41965;DHT22;50120;53.250;8.702;2022-12-18T07:07:35;-7.60;99.90
41965;DHT22;50120;53.250;8.702;2022-12-18T07:10:01;-7.60;99.90
41965;DHT22;50120;53.250;8.702;2022-12-18T07:12:27;-7.40;99.90
41965;DHT22;50120;53.250;8.702;2022-12-18T07:14:53;-7.60;99.90
41965;DHT22;50120;53.250;8.702;2022-12-18T07:17:18;-7.70;99.90
41965;DHT22;50120;53.250;8.702;2022-12-18T07:19:44;-7.60;99.90
41965;DHT22;50120;53.250;8.702;2022-12-18T07:22:10;-7.70;99.90
41965;DHT22;50120;53.250;8.702;2022-12-18T07:24:36;-7.70;99.90
41965;DHT22;50120;53.250;8.702;2022-12-18T07:27:02;-7.70;99.90
41965;DHT22;50120;53.250;8.702;2022-12-18T07:29:27;-7.70;99.90
41965;DHT22;50120;53.250;8.702;2022-12-18T07:31:53;-7.70;99.90
41965;DHT22;50120;53.250;8.702;2022-12-18T07:34:19;-7.70;99.90
41965;DHT22;50120;53.250;8.702;2022-12-18T07:36:45;-7.70;99.90
41965;DHT22;50120;53.250;8.702;2022-12-18T07:39:11;-7.70;99.90
41965;DHT22;50120;53.250;8.702;2022-12-18T07:41:37;-7.80;99.90
41965;DHT22;50120;53.250;8.702;2022-12-18T07:44:03;-7.80;99.90
41965;DHT22;50120;53.250;8.702;2022-12-18T07:46:29;-7.80;99.90
41965;DHT22;50120;53.250;8.702;2022-12-18T07:48:54;-7.70;99.90
41965;DHT22;50120;53.250;8.702;2022-12-18T07:51:20;-7.80;99.90
41965;DHT22;50120;53.250;8.702;2022-12-18T07:53:46;-7.70;99.90
41965;DHT22;50120;53.250;8.702;2022-12-18T07:56:13;-7.60;99.90
41965;DHT22;50120;53.250;8.702;2022-12-18T07:58:39;-7.70;99.90
41965;DHT22;50120;53.250;8.702;2022-12-18T08:01:09;-7.60;99.90
41965;DHT22;50120;53.250;8.702;2022-12-18T08:03:35;-7.60;99.90
41965;DHT22;50120;53.250;8.702;2022-12-18T08:06:03;-7.50;99.90
41965;DHT22;50120;53.250;8.702;2022-12-18T08:08:29;-7.50;99.90
41965;DHT22;50120;53.250;8.702;2022-12-18T08:10:56;-7.50;99.90
41965;DHT22;50120;53.250;8.702;2022-12-18T08:13:22;-7.50;99.90
41965;DHT22;50120;53.250;8.702;2022-12-18T08:16:05;-7.40;99.90
41965;DHT22;50120;53.250;8.702;2022-12-18T08:18:36;-7.50;99.90
41965;DHT22;50120;53.250;8.702;2022-12-18T08:21:17;-7.40;99.90
41965;DHT22;50120;53.250;8.702;2022-12-18T08:23:44;-7.40;99.90
41965;DHT22;50120;53.250;8.702;2022-12-18T08:26:11;-7.30;99.90
41965;DHT22;50120;53.250;8.702;2022-12-18T08:28:36;-7.10;99.90
41965;DHT22;50120;53.250;8.702;2022-12-18T08:31:02;-7.20;99.90
41965;DHT22;50120;53.250;8.702;2022-12-18T08:33:28;-7.20;99.90
41965;DHT22;50120;53.250;8.702;2022-12-18T08:35:54;-7.10;99.90
41965;DHT22;50120;53.250;8.702;2022-12-18T08:38:19;-7.00;99.90
41965;DHT22;50120;53.250;8.702;2022-12-18T08:40:45;-6.90;99.90
41965;DHT22;50120;53.250;8.702;2022-12-18T08:43:11;-6.90;99.90
41965;DHT22;50120;53.250;8.702;2022-12-18T08:45:56;-6.80;99.90
41965;DHT22;50120;53.250;8.702;2022-12-18T08:48:22;-6.70;99.90
41965;DHT22;50120;53.250;8.702;2022-12-18T08:50:55;-6.60;99.90
41965;DHT22;50120;53.250;8.702;2022-12-18T08:53:21;-6.50;99.90
41965;DHT22;50120;53.250;8.702;2022-12-18T08:55:49;-6.40;99.90
41965;DHT22;50120;53.250;8.702;2022-12-18T08:58:15;-6.30;99.90
41965;DHT22;50120;53.250;8.702;2022-12-18T09:00:41;-6.20;99.90
41965;DHT22;50120;53.250;8.702;2022-12-18T09:03:18;-6.10;99.90
41965;DHT22;50120;53.250;8.702;2022-12-18T09:05:46;-6.00;99.90
41965;DHT22;50120;53.250;8.702;2022-12-18T09:08:12;-5.90;99.90
41965;DHT22;50120;53.250;8.702;2022-12-18T09:10:49;-5.80;99.90
41965;DHT22;50120;53.250;8.702;2022-12-18T09:13:15;-5.70;99.90
41965;DHT22;50120;53.250;8.702;2022-12-18T09:15:47;-5.60;99.90
41965;DHT22;50120;53.250;8.702;2022-12-18T09:18:14;-5.50;99.90
41965;DHT22;50120;53.250;8.702;2022-12-18T09:20:39;-5.50;99.90
41965;DHT22;50120;53.250;8.702;2022-12-18T09:23:06;-5.40;99.90
41965;DHT22;50120;53.250;8.702;2022-12-18T09:25:32;-5.40;99.90
41965;DHT22;50120;53.250;8.702;2022-12-18T09:27:59;-5.30;99.90
41965;DHT22;50120;53.250;8.702;2022-12-18T09:30:25;-5.10;99.90
41965;DHT22;50120;53.250;8.702;2022-12-18T09:32:55;-5.20;99.90
41965;DHT22;50120;53.250;8.702;2022-12-18T09:35:21;-5.10;99.90
41965;DHT22;50120;53.250;8.702;2022-12-18T09:37:46;-5.00;99.90
41965;DHT22;50120;53.250;8.702;2022-12-18T09:40:22;-5.00;99.90
41965;DHT22;50120;53.250;8.702;2022-12-18T09:42:54;-5.00;99.90
41965;DHT22;50120;53.250;8.702;2022-12-18T09:45:21;-5.00;99.90
41965;DHT22;50120;53.250;8.702;2022-12-18T09:47:48;-4.80;99.90
41965;DHT22;50120;53.250;8.702;2022-12-18T09:50:27;-4.90;99.90
41965;DHT22;50120;53.250;8.702;2022-12-18T09:52:56;-4.90;99.90
41965;DHT22;50120;53.250;8.702;2022-12-18T09:55:41;-4.90;99.90
41965;DHT22;50120;53.250;8.702;2022-12-18T09:58:30;-4.80;99.90
41965;DHT22;50120;53.250;8.702;2022-12-18T10:00:56;-4.80;99.90
41965;DHT22;50120;53.250;8.702;2022-12-18T10:03:22;-4.70;99.90
41965;DHT22;50120;53.250;8.702;2022-12-18T10:06:14;-4.80;99.90
41965;DHT22;50120;53.250;8.702;2022-12-18T10:14:34;-4.60;99.90
41965;DHT22;50120;53.250;8.702;2022-12-18T10:19:58;-4.50;99.90
41965;DHT22;50120;53.250;8.702;2022-12-18T10:25:02;-4.40;99.90
41965;DHT22;50120;53.250;8.702;2022-12-18T10:27:30;-4.40;99.90
41965;DHT22;50120;53.250;8.702;2022-12-18T10:29:57;-4.30;99.90
41965;DHT22;50120;53.250;8.702;2022-12-18T10:32:26;-4.20;99.90
41965;DHT22;50120;53.250;8.702;2022-12-18T10:34:54;-4.10;99.90
41965;DHT22;50120;53.250;8.702;2022-12-18T10:37:23;-4.10;99.90
41965;DHT22;50120;53.250;8.702;2022-12-18T10:40:10;-4.10;99.90
41965;DHT22;50120;53.250;8.702;2022-12-18T10:42:36;-4.00;99.90
41965;DHT22;50120;53.250;8.702;2022-12-18T10:45:09;-4.10;99.90
41965;DHT22;50120;53.250;8.702;2022-12-18T10:47:35;-4.10;99.90
41965;DHT22;50120;53.250;8.702;2022-12-18T10:50:01;-4.00;99.90
41965;DHT22;50120;53.250;8.702;2022-12-18T10:52:27;-4.00;99.90
41965;DHT22;50120;53.250;8.702;2022-12-18T10:57:39;-4.00;99.90
41965;DHT22;50120;53.250;8.702;2022-12-18T11:02:51;-3.90;99.90
41965;DHT22;50120;53.250;8.702;2022-12-18T11:05:29;-3.90;99.90
41965;DHT22;50120;53.250;8.702;2022-12-18T11:07:56;-3.90;99.90
41965;DHT22;50120;53.250;8.702;2022-12-18T11:10:33;-3.80;99.90
41965;DHT22;50120;53.250;8.702;2022-12-18T11:13:19;-3.90;99.90
41965;DHT22;50120;53.250;8.702;2022-12-18T11:15:46;-3.90;99.90
41965;DHT22;50120;53.250;8.702;2022-12-18T11:18:25;-3.90;99.90
41965;DHT22;50120;53.250;8.702;2022-12-18T11:23:25;-3.80;99.90
41965;DHT22;50120;53.250;8.702;2022-12-18T11:25:59;-3.70;99.90
41965;DHT22;50120;53.250;8.702;2022-12-18T11:31:21;-3.60;99.90
41965;DHT22;50120;53.250;8.702;2022-12-18T11:36:22;-3.50;99.90
41965;DHT22;50120;53.250;8.702;2022-12-18T11:38:50;-3.30;99.90
41965;DHT22;50120;53.250;8.702;2022-12-18T11:44:59;-3.20;99.90
41965;DHT22;50120;53.250;8.702;2022-12-18T11:47:44;-3.10;99.90
41965;DHT22;50120;53.250;8.702;2022-12-18T11:50:21;-3.00;99.90
41965;DHT22;50120;53.250;8.702;2022-12-18T11:52:49;-2.80;99.90
41965;DHT22;50120;53.250;8.702;2022-12-18T11:56:00;-2.80;99.90
41965;DHT22;50120;53.250;8.702;2022-12-18T12:04:00;-2.60;99.90
41965;DHT22;50120;53.250;8.702;2022-12-18T12:06:57;-2.60;99.90
41965;DHT22;50120;53.250;8.702;2022-12-18T12:09:45;-2.60;99.90
41965;DHT22;50120;53.250;8.702;2022-12-18T12:15:03;-2.50;99.90
41965;DHT22;50120;53.250;8.702;2022-12-18T12:17:53;-2.50;99.90
41965;DHT22;50120;53.250;8.702;2022-12-18T12:25:40;-2.40;99.90
41965;DHT22;50120;53.250;8.702;2022-12-18T12:28:16;-2.40;99.90
41965;DHT22;50120;53.250;8.702;2022-12-18T12:31:00;-2.40;99.90
41965;DHT22;50120;53.250;8.702;2022-12-18T12:33:37;-2.40;99.90
41965;DHT22;50120;53.250;8.702;2022-12-18T12:39:01;-2.40;99.90
41965;DHT22;50120;53.250;8.702;2022-12-18T12:41:32;-2.40;99.90
41965;DHT22;50120;53.250;8.702;2022-12-18T12:44:25;-2.40;99.90
41965;DHT22;50120;53.250;8.702;2022-12-18T12:46:56;-2.30;99.90
41965;DHT22;50120;53.250;8.702;2022-12-18T12:49:27;-2.40;99.90
41965;DHT22;50120;53.250;8.702;2022-12-18T12:54:53;-2.30;99.90
41965;DHT22;50120;53.250;8.702;2022-12-18T12:57:34;-2.30;99.90
41965;DHT22;50120;53.250;8.702;2022-12-18T13:10:37;-2.30;99.90
41965;DHT22;50120;53.250;8.702;2022-12-18T13:13:16;-2.30;99.90
41965;DHT22;50120;53.250;8.702;2022-12-18T13:15:47;-2.30;99.90
41965;DHT22;50120;53.250;8.702;2022-12-18T13:18:24;-2.30;99.90
41965;DHT22;50120;53.250;8.702;2022-12-18T13:21:02;-2.20;99.90
41965;DHT22;50120;53.250;8.702;2022-12-18T13:23:38;-2.20;99.90
41965;DHT22;50120;53.250;8.702;2022-12-18T13:34:17;-2.20;99.90
41965;DHT22;50120;53.250;8.702;2022-12-18T13:36:43;-2.20;99.90
41965;DHT22;50120;53.250;8.702;2022-12-18T13:44:59;-2.10;99.90
41965;DHT22;50120;53.250;8.702;2022-12-18T13:47:36;-2.10;99.90
41965;DHT22;50120;53.250;8.702;2022-12-18T13:50:20;-2.10;99.90
41965;DHT22;50120;53.250;8.702;2022-12-18T13:52:50;-2.10;99.90
41965;DHT22;50120;53.250;8.702;2022-12-18T13:55:19;-2.10;99.90
41965;DHT22;50120;53.250;8.702;2022-12-18T13:57:45;-2.10;99.90
41965;DHT22;50120;53.250;8.702;2022-12-18T14:00:26;-2.10;99.90
41965;DHT22;50120;53.250;8.702;2022-12-18T14:02:52;-2.20;99.90
41965;DHT22;50120;53.250;8.702;2022-12-18T14:05:32;-2.30;99.90
41965;DHT22;50120;53.250;8.702;2022-12-18T14:08:21;-2.20;99.90
41965;DHT22;50120;53.250;8.702;2022-12-18T14:10:48;-2.20;99.90
41965;DHT22;50120;53.250;8.702;2022-12-18T14:13:26;-2.10;99.90
41965;DHT22;50120;53.250;8.702;2022-12-18T14:15:53;-2.10;99.90
41965;DHT22;50120;53.250;8.702;2022-12-18T14:18:25;-2.10;99.90
41965;DHT22;50120;53.250;8.702;2022-12-18T14:20:54;-2.20;99.90
41965;DHT22;50120;53.250;8.702;2022-12-18T14:23:40;-2.20;99.90
41965;DHT22;50120;53.250;8.702;2022-12-18T14:26:41;-2.20;99.90
41965;DHT22;50120;53.250;8.702;2022-12-18T14:29:25;-2.10;99.90
41965;DHT22;50120;53.250;8.702;2022-12-18T14:32:14;-2.10;99.90
41965;DHT22;50120;53.250;8.702;2022-12-18T14:34:43;-2.10;99.90
41965;DHT22;50120;53.250;8.702;2022-12-18T14:37:14;-2.10;99.90
41965;DHT22;50120;53.250;8.702;2022-12-18T14:39:40;-2.10;99.90
41965;DHT22;50120;53.250;8.702;2022-12-18T14:42:09;-2.20;99.90
41965;DHT22;50120;53.250;8.702;2022-12-18T14:44:35;-2.20;99.90
41965;DHT22;50120;53.250;8.702;2022-12-18T14:47:00;-2.20;99.90
41965;DHT22;50120;53.250;8.702;2022-12-18T14:49:30;-2.20;99.90
41965;DHT22;50120;53.250;8.702;2022-12-18T14:52:13;-2.20;99.90
41965;DHT22;50120;53.250;8.702;2022-12-18T14:54:46;-2.10;99.90
41965;DHT22;50120;53.250;8.702;2022-12-18T14:59:47;-2.10;99.90
41965;DHT22;50120;53.250;8.702;2022-12-18T15:02:27;-2.20;99.90
41965;DHT22;50120;53.250;8.702;2022-12-18T15:05:17;-2.20;99.90
41965;DHT22;50120;53.250;8.702;2022-12-18T15:20:43;-2.10;99.90
41965;DHT22;50120;53.250;8.702;2022-12-18T15:23:24;-2.10;99.90
41965;DHT22;50120;53.250;8.702;2022-12-18T15:26:01;-2.00;99.90
41965;DHT22;50120;53.250;8.702;2022-12-18T15:28:32;-2.10;99.90
41965;DHT22;50120;53.250;8.702;2022-12-18T15:36:10;-2.00;99.90
41965;DHT22;50120;53.250;8.702;2022-12-18T15:38:36;-2.00;99.90
41965;DHT22;50120;53.250;8.702;2022-12-18T15:41:02;-2.00;99.90
41965;DHT22;50120;53.250;8.702;2022-12-18T15:43:30;-2.00;99.90
41965;DHT22;50120;53.250;8.702;2022-12-18T15:46:10;-2.00;99.90
41965;DHT22;50120;53.250;8.702;2022-12-18T15:48:41;-1.90;99.90
41965;DHT22;50120;53.250;8.702;2022-12-18T15:51:16;-2.00;99.90
41965;DHT22;50120;53.250;8.702;2022-12-18T15:53:42;-1.80;99.90
41965;DHT22;50120;53.250;8.702;2022-12-18T15:56:13;-1.90;99.90
41965;DHT22;50120;53.250;8.702;2022-12-18T15:58:57;-1.90;99.90
41965;DHT22;50120;53.250;8.702;2022-12-18T16:01:25;-1.90;99.90
41965;DHT22;50120;53.250;8.702;2022-12-18T16:03:51;-1.90;99.90
41965;DHT22;50120;53.250;8.702;2022-12-18T16:06:17;-1.90;99.90
41965;DHT22;50120;53.250;8.702;2022-12-18T16:08:42;-1.90;99.90
41965;DHT22;50120;53.250;8.702;2022-12-18T16:13:45;-1.90;99.90
41965;DHT22;50120;53.250;8.702;2022-12-18T16:16:11;-1.80;99.90
41965;DHT22;50120;53.250;8.702;2022-12-18T16:18:36;-1.80;99.90
41965;DHT22;50120;53.250;8.702;2022-12-18T16:21:02;-1.80;99.90
41965;DHT22;50120;53.250;8.702;2022-12-18T16:23:28;-1.80;99.90
41965;DHT22;50120;53.250;8.702;2022-12-18T16:25:54;-1.80;99.90
41965;DHT22;50120;53.250;8.702;2022-12-18T16:28:19;-1.80;99.90
41965;DHT22;50120;53.250;8.702;2022-12-18T16:30:45;-1.70;99.90
41965;DHT22;50120;53.250;8.702;2022-12-18T16:33:11;-1.70;99.90
41965;DHT22;50120;53.250;8.702;2022-12-18T16:35:37;-1.60;99.90
41965;DHT22;50120;53.250;8.702;2022-12-18T16:38:02;-1.60;99.90
41965;DHT22;50120;53.250;8.702;2022-12-18T16:40:31;-1.70;99.90
41965;DHT22;50120;53.250;8.702;2022-12-18T16:42:57;-1.50;99.90
41965;DHT22;50120;53.250;8.702;2022-12-18T16:45:26;-1.60;99.90
41965;DHT22;50120;53.250;8.702;2022-12-18T16:47:51;-1.60;99.90
41965;DHT22;50120;53.250;8.702;2022-12-18T16:50:17;-1.60;99.90
41965;DHT22;50120;53.250;8.702;2022-12-18T16:52:43;-1.60;99.90
41965;DHT22;50120;53.250;8.702;2022-12-18T16:55:09;-1.60;99.90
41965;DHT22;50120;53.250;8.702;2022-12-18T16:57:34;-1.60;99.90
41965;DHT22;50120;53.250;8.702;2022-12-18T17:00:00;-1.50;99.90
41965;DHT22;50120;53.250;8.702;2022-12-18T17:02:26;-1.50;99.90
41965;DHT22;50120;53.250;8.702;2022-12-18T17:04:54;-1.50;99.90
41965;DHT22;50120;53.250;8.702;2022-12-18T17:07:20;-1.50;99.90
41965;DHT22;50120;53.250;8.702;2022-12-18T17:09:45;-1.50;99.90
41965;DHT22;50120;53.250;8.702;2022-12-18T17:12:11;-1.40;99.90
41965;DHT22;50120;53.250;8.702;2022-12-18T17:14:37;-1.40;99.90
41965;DHT22;50120;53.250;8.702;2022-12-18T17:17:03;-1.40;99.90
41965;DHT22;50120;53.250;8.702;2022-12-18T17:19:29;-1.40;99.90
41965;DHT22;50120;53.250;8.702;2022-12-18T17:21:55;-1.40;99.90
41965;DHT22;50120;53.250;8.702;2022-12-18T17:24:21;-1.30;99.90
41965;DHT22;50120;53.250;8.702;2022-12-18T17:26:47;-1.30;99.90
41965;DHT22;50120;53.250;8.702;2022-12-18T17:29:15;-1.30;99.90
41965;DHT22;50120;53.250;8.702;2022-12-18T17:31:41;-1.30;99.90
41965;DHT22;50120;53.250;8.702;2022-12-18T17:34:09;-1.20;99.90
41965;DHT22;50120;53.250;8.702;2022-12-18T17:36:35;-1.20;99.90
41965;DHT22;50120;53.250;8.702;2022-12-18T17:39:02;-1.30;99.90
41965;DHT22;50120;53.250;8.702;2022-12-18T17:41:29;-1.20;99.90
41965;DHT22;50120;53.250;8.702;2022-12-18T17:44:05;-1.30;99.90
41965;DHT22;50120;53.250;8.702;2022-12-18T17:46:32;-1.30;99.90
41965;DHT22;50120;53.250;8.702;2022-12-18T17:48:59;-1.20;99.90